createdAt,value
2023-03-29T00:00:22.035Z,4.84
2023-03-29T00:03:24.728Z,4.88
2023-03-29T00:06:31.153Z,4.92
2023-03-29T00:09:33.809Z,4.94
2023-03-29T00:12:37.730Z,5.01
2023-03-29T00:15:40.356Z,5.06
2023-03-29T00:18:42.887Z,5.09
2023-03-29T00:21:45.486Z,5.11
2023-03-29T00:24:49.163Z,5.14
2023-03-29T00:27:53.146Z,5.18
2023-03-29T00:31:04.397Z,5.21
2023-03-29T00:34:07.219Z,5.23
2023-03-29T00:37:09.984Z,5.28
2023-03-29T00:40:13.293Z,5.33
2023-03-29T00:43:17.384Z,5.38
2023-03-29T00:46:20.022Z,5.43
2023-03-29T00:49:22.631Z,5.47
2023-03-29T00:52:30.040Z,5.50
2023-03-29T00:55:34.929Z,5.53
2023-03-29T00:58:40.347Z,5.54
2023-03-29T01:01:46.466Z,5.57
2023-03-29T01:04:50.746Z,5.62
2023-03-29T01:07:57.947Z,5.64
2023-03-29T01:11:01.817Z,5.65
2023-03-29T01:14:06.529Z,5.66
2023-03-29T01:17:09.147Z,5.68
2023-03-29T01:20:14.217Z,5.67
2023-03-29T01:23:31.442Z,5.68
2023-03-29T01:26:40.425Z,5.70
2023-03-29T01:29:45.513Z,5.72
2023-03-29T01:32:50.481Z,5.73
2023-03-29T01:35:57.437Z,5.74
2023-03-29T01:39:00.573Z,5.77
2023-03-29T01:42:09.732Z,5.77
2023-03-29T01:45:18.494Z,5.78
2023-03-29T01:48:23.932Z,5.80
2023-03-29T01:51:27.297Z,5.81
2023-03-29T01:54:31.743Z,5.82
2023-03-29T01:57:34.312Z,5.86
2023-03-29T02:00:38.555Z,5.90
2023-03-29T02:03:43.184Z,5.91
2023-03-29T02:06:45.759Z,5.93
2023-03-29T02:09:48.875Z,5.97
2023-03-29T02:12:51.956Z,5.99
2023-03-29T02:15:56.574Z,6.03
2023-03-29T02:18:59.441Z,6.05
2023-03-29T02:22:03.877Z,6.06
2023-03-29T02:25:08.464Z,6.06
2023-03-29T02:28:11.028Z,6.06
2023-03-29T02:31:17.942Z,6.08
2023-03-29T02:34:22.293Z,6.09
2023-03-29T02:37:26.565Z,6.10
2023-03-29T02:40:29.116Z,6.10
2023-03-29T02:43:31.699Z,6.13
2023-03-29T02:46:37.761Z,6.14
2023-03-29T02:49:40.514Z,6.16
2023-03-29T02:52:46.119Z,6.18
2023-03-29T02:55:48.877Z,6.21
2023-03-29T02:58:51.443Z,6.22
2023-03-29T03:01:55.411Z,6.24
2023-03-29T03:04:59.125Z,6.25
2023-03-29T03:08:02.594Z,6.24
2023-03-29T03:11:05.376Z,6.25
2023-03-29T03:14:07.912Z,6.27
2023-03-29T03:17:11.829Z,6.28
2023-03-29T03:20:14.687Z,6.28
2023-03-29T03:23:17.638Z,6.28
2023-03-29T03:26:20.207Z,6.28
2023-03-29T03:29:23.208Z,6.28
2023-03-29T03:32:27.123Z,6.28
2023-03-29T03:35:29.668Z,6.30
2023-03-29T03:38:32.309Z,6.31
2023-03-29T03:41:34.937Z,6.33
2023-03-29T03:44:37.905Z,6.35
2023-03-29T03:47:42.197Z,6.35
2023-03-29T03:50:49.561Z,6.36
2023-03-29T03:53:52.089Z,6.38
2023-03-29T03:56:55.114Z,6.38
2023-03-29T03:59:58.901Z,6.39
2023-03-29T04:03:06.050Z,6.37
2023-03-29T04:06:09.640Z,6.37
2023-03-29T04:09:12.793Z,6.34
2023-03-29T04:12:15.720Z,6.34
2023-03-29T04:15:20.156Z,6.34
2023-03-29T04:18:24.441Z,6.33
2023-03-29T04:21:27.143Z,6.34
2023-03-29T04:24:29.675Z,6.34
2023-03-29T04:27:32.255Z,6.35
2023-03-29T04:30:34.846Z,6.36
2023-03-29T04:33:38.860Z,6.36
2023-03-29T04:36:41.426Z,6.34
2023-03-29T04:39:44.725Z,6.35
2023-03-29T04:42:47.306Z,6.37
2023-03-29T04:45:50.064Z,6.39
2023-03-29T04:48:54.027Z,6.41
2023-03-29T04:51:57.010Z,6.44
2023-03-29T04:54:59.543Z,6.46
2023-03-29T04:58:02.604Z,6.47
2023-03-29T05:01:05.721Z,6.49
2023-03-29T05:04:12.561Z,6.50
2023-03-29T05:07:15.605Z,6.51
2023-03-29T05:10:18.376Z,6.53
2023-03-29T05:13:20.928Z,6.56
2023-03-29T05:16:24.454Z,6.59
2023-03-29T05:19:28.419Z,6.60
2023-03-29T05:22:31.417Z,6.64
2023-03-29T05:25:34.306Z,6.66
2023-03-29T05:28:36.873Z,6.66
2023-03-29T05:31:39.527Z,6.68
2023-03-29T05:34:43.558Z,6.68
2023-03-29T05:37:47.120Z,6.70
2023-03-29T05:40:49.877Z,6.72
2023-03-29T05:43:52.490Z,6.74
2023-03-29T05:46:55.073Z,6.76
2023-03-29T05:49:59.232Z,6.80
2023-03-29T05:53:01.750Z,6.82
2023-03-29T05:56:04.956Z,6.84
2023-03-29T05:59:08.324Z,6.87
2023-03-29T06:02:11.576Z,6.88
2023-03-29T06:05:16.014Z,6.90
2023-03-29T06:08:18.618Z,6.92
2023-03-29T06:11:22.227Z,6.93
2023-03-29T06:14:24.899Z,6.95
2023-03-29T06:17:27.927Z,6.97
2023-03-29T06:20:31.842Z,6.97
2023-03-29T06:23:34.701Z,6.98
2023-03-29T06:26:37.458Z,7.01
2023-03-29T06:29:40.227Z,7.04
2023-03-29T06:32:42.924Z,7.07
2023-03-29T06:35:47.497Z,7.10
2023-03-29T06:38:50.052Z,7.14
2023-03-29T06:41:52.610Z,7.18
2023-03-29T06:44:55.140Z,7.20
2023-03-29T06:47:57.726Z,7.23
2023-03-29T06:51:01.790Z,7.26
2023-03-29T06:54:05.345Z,7.30
2023-03-29T06:57:07.956Z,7.30
2023-03-29T07:00:18.205Z,7.35
2023-03-29T07:03:24.551Z,7.38
2023-03-29T07:06:28.451Z,7.41
2023-03-29T07:09:31.371Z,7.45
2023-03-29T07:12:34.193Z,7.49
2023-03-29T07:15:37.039Z,7.53
2023-03-29T07:18:41.257Z,7.56
2023-03-29T07:21:45.182Z,7.58
2023-03-29T07:24:49.276Z,7.61
2023-03-29T07:27:52.915Z,7.62
2023-03-29T07:31:03.145Z,7.66
2023-03-29T07:34:10.590Z,7.69
2023-03-29T07:37:14.502Z,7.71
2023-03-29T07:40:19.528Z,7.74
2023-03-29T07:43:22.269Z,7.80
2023-03-29T07:46:24.871Z,7.80
2023-03-29T07:49:27.498Z,7.84
2023-03-29T07:52:31.501Z,7.88
2023-03-29T07:55:34.036Z,7.93
2023-03-29T07:58:37.641Z,7.94
2023-03-29T08:01:41.112Z,7.98
2023-03-29T08:04:43.778Z,7.99
2023-03-29T08:07:47.816Z,8.04
2023-03-29T08:10:50.359Z,8.07
2023-03-29T08:13:52.999Z,8.13
2023-03-29T08:16:55.688Z,8.17
2023-03-29T08:19:58.297Z,8.20
2023-03-29T08:23:02.175Z,8.26
2023-03-29T08:26:04.904Z,8.33
2023-03-29T08:29:08.288Z,8.38
2023-03-29T08:32:11.436Z,8.43
2023-03-29T08:35:14.005Z,8.45
2023-03-29T08:38:17.892Z,8.54
2023-03-29T08:41:27.773Z,8.60
2023-03-29T08:44:43.841Z,8.62
2023-03-29T08:47:49.931Z,8.61
2023-03-29T08:50:53.729Z,8.62
2023-03-29T08:53:58.826Z,8.64
2023-03-29T08:57:02.967Z,8.66
2023-03-29T09:00:07.222Z,8.69
2023-03-29T09:03:11.336Z,8.71
2023-03-29T09:06:14.096Z,8.76
2023-03-29T09:09:19.718Z,8.80
2023-03-29T09:12:27.313Z,8.85
2023-03-29T09:15:31.019Z,8.88
2023-03-29T09:18:37.761Z,8.88
2023-03-29T09:21:43.251Z,8.93
2023-03-29T09:24:54.081Z,8.95
2023-03-29T09:27:59.181Z,9.01
2023-03-29T09:31:05.068Z,9.02
2023-03-29T09:34:10.665Z,8.99
2023-03-29T09:37:15.077Z,9.00
2023-03-29T09:40:20.914Z,9.02
2023-03-29T09:43:29.691Z,9.07
2023-03-29T09:46:37.348Z,9.17
2023-03-29T09:49:41.652Z,9.21
2023-03-29T09:52:44.255Z,9.22
2023-03-29T09:55:50.385Z,9.16
2023-03-29T09:58:53.109Z,9.12
2023-03-29T10:01:55.739Z,9.11
2023-03-29T10:05:00.558Z,9.17
2023-03-29T10:08:19.889Z,9.25
2023-03-29T10:11:26.917Z,9.31
2023-03-29T10:14:33.253Z,9.36
2023-03-29T10:17:39.305Z,9.41
2023-03-29T10:20:41.871Z,9.39
2023-03-29T10:23:44.882Z,9.38
2023-03-29T10:26:49.315Z,9.36
2023-03-29T10:29:51.960Z,9.31
2023-03-29T10:32:57.844Z,9.31
2023-03-29T10:36:00.999Z,9.32
2023-03-29T10:39:05.991Z,9.39
2023-03-29T10:42:11.508Z,9.42
2023-03-29T10:45:20.331Z,9.43
2023-03-29T10:48:25.941Z,9.44
2023-03-29T10:51:30.111Z,9.48
2023-03-29T10:54:32.675Z,9.52
2023-03-29T10:57:39.981Z,9.57
2023-03-29T11:00:44.447Z,9.62
2023-03-29T11:04:08.568Z,9.64
2023-03-29T11:07:23.286Z,9.71
2023-03-29T11:10:32.768Z,9.77
2023-03-29T11:13:39.498Z,9.85
2023-03-29T11:16:44.605Z,9.89
2023-03-29T11:19:56.420Z,9.93
2023-03-29T11:23:03.783Z,9.93
2023-03-29T11:26:11.210Z,9.91
2023-03-29T11:29:16.098Z,9.84
2023-03-29T11:32:21.520Z,9.76
2023-03-29T11:35:31.271Z,9.67
2023-03-29T11:38:36.103Z,9.66
2023-03-29T11:41:39.459Z,9.70
2023-03-29T11:44:43.813Z,9.75
2023-03-29T11:47:46.599Z,9.82
2023-03-29T11:50:51.710Z,9.86
2023-03-29T11:53:57.616Z,9.89
2023-03-29T11:57:02.869Z,9.90
2023-03-29T12:00:08.707Z,10.00
2023-03-29T12:03:13.814Z,10.07
2023-03-29T12:06:18.440Z,10.15
2023-03-29T12:09:26.512Z,10.23
2023-03-29T12:12:30.518Z,10.28
2023-03-29T12:15:36.399Z,10.30
2023-03-29T12:18:40.865Z,10.28
2023-03-29T12:21:43.429Z,10.28
2023-03-29T12:24:46.158Z,10.31
2023-03-29T12:27:53.755Z,10.37
2023-03-29T12:31:00.798Z,10.37
2023-03-29T12:34:34.967Z,10.37
2023-03-29T12:37:42.341Z,10.37
2023-03-29T12:40:46.041Z,10.46
2023-03-29T12:43:48.641Z,10.57
2023-03-29T12:46:54.369Z,10.67
2023-03-29T12:49:57.536Z,10.77
2023-03-29T12:53:04.419Z,10.79
2023-03-29T12:56:13.346Z,10.84
2023-03-29T12:59:26.958Z,10.94
2023-03-29T13:02:39.188Z,11.06
2023-03-29T13:05:41.964Z,11.11
2023-03-29T13:08:44.916Z,11.20
2023-03-29T13:11:52.830Z,11.33
2023-03-29T13:14:56.570Z,11.39
2023-03-29T13:18:04.895Z,11.42
2023-03-29T13:21:13.274Z,11.50
2023-03-29T13:24:26.439Z,11.53
2023-03-29T13:27:34.132Z,11.52
2023-03-29T13:30:44.119Z,11.54
2023-03-29T13:33:53.069Z,11.58
2023-03-29T13:37:00.759Z,11.62
2023-03-29T13:40:05.237Z,11.62
2023-03-29T13:43:10.284Z,11.64
2023-03-29T13:46:24.007Z,11.68
2023-03-29T13:49:28.799Z,11.74
2023-03-29T13:52:32.454Z,11.83
2023-03-29T13:55:38.488Z,11.95
2023-03-29T13:58:43.821Z,12.04
2023-03-29T14:01:50.411Z,12.04
2023-03-29T14:04:54.369Z,12.07
2023-03-29T14:07:56.980Z,12.12
2023-03-29T14:11:01.717Z,12.14
2023-03-29T14:14:05.738Z,12.17
2023-03-29T14:17:08.416Z,12.23
2023-03-29T14:20:16.571Z,12.21
2023-03-29T14:23:21.111Z,12.23
2023-03-29T14:26:24.277Z,12.31
2023-03-29T14:29:31.624Z,12.34
2023-03-29T14:32:34.039Z,12.34
2023-03-29T14:35:38.137Z,12.28
2023-03-29T14:38:40.976Z,12.33
2023-03-29T14:41:47.016Z,12.34
2023-03-29T14:44:49.954Z,12.37
2023-03-29T14:47:52.888Z,12.43
2023-03-29T14:50:56.821Z,12.45
2023-03-29T14:53:59.513Z,12.46
2023-03-29T14:57:06.489Z,12.50
2023-03-29T15:00:19.792Z,12.58
2023-03-29T15:03:26.064Z,12.60
2023-03-29T15:06:30.161Z,12.61
2023-03-29T15:09:34.182Z,12.61
2023-03-29T15:12:36.763Z,12.58
2023-03-29T15:15:39.431Z,12.52
2023-03-29T15:18:42.310Z,12.49
2023-03-29T15:21:47.756Z,12.49
2023-03-29T15:24:50.759Z,12.45
2023-03-29T15:27:56.182Z,12.41
2023-03-29T15:31:07.932Z,12.41
2023-03-29T15:34:12.435Z,12.39
2023-03-29T15:37:16.625Z,12.38
2023-03-29T15:40:20.145Z,12.38
2023-03-29T15:43:23.505Z,12.36
2023-03-29T15:46:26.166Z,12.36
2023-03-29T15:49:28.900Z,12.38
2023-03-29T15:52:32.773Z,12.41
2023-03-29T15:55:35.301Z,12.42
2023-03-29T15:58:37.836Z,12.43
2023-03-29T16:01:41.652Z,12.43
2023-03-29T16:04:44.344Z,12.43
2023-03-29T16:07:48.292Z,12.43
2023-03-29T16:10:50.856Z,12.46
2023-03-29T16:13:53.492Z,12.47
2023-03-29T16:16:58.831Z,12.49
2023-03-29T16:20:01.596Z,12.49
2023-03-29T16:23:09.255Z,12.51
2023-03-29T16:26:12.709Z,12.51
2023-03-29T16:29:17.316Z,12.52
2023-03-29T16:32:20.217Z,12.53
2023-03-29T16:35:25.830Z,12.53
2023-03-29T16:38:29.700Z,12.53
2023-03-29T16:41:32.552Z,12.53
2023-03-29T16:44:35.227Z,12.56
2023-03-29T16:47:39.307Z,12.57
2023-03-29T16:50:42.016Z,12.56
2023-03-29T16:53:47.656Z,12.53
2023-03-29T16:56:50.617Z,12.51
2023-03-29T16:59:53.180Z,12.51
2023-03-29T17:02:56.013Z,12.49
2023-03-29T17:05:59.166Z,12.51
2023-03-29T17:09:03.240Z,12.50
2023-03-29T17:12:05.823Z,12.48
2023-03-29T17:15:09.153Z,12.47
2023-03-29T17:18:12.130Z,12.46
2023-03-29T17:21:14.796Z,12.43
2023-03-29T17:24:18.723Z,12.42
2023-03-29T17:27:21.580Z,12.41
2023-03-29T17:30:24.108Z,12.42
2023-03-29T17:33:26.790Z,12.41
2023-03-29T17:36:33.647Z,12.41
2023-03-29T17:39:37.797Z,12.41
2023-03-29T17:42:40.557Z,12.41
2023-03-29T17:45:43.096Z,12.39
2023-03-29T17:48:46.933Z,12.39
2023-03-29T17:51:49.469Z,12.39
2023-03-29T17:54:53.332Z,12.37
2023-03-29T17:57:56.289Z,12.33
2023-03-29T18:00:58.868Z,12.32
2023-03-29T18:04:01.582Z,12.30
2023-03-29T18:07:04.176Z,12.27
2023-03-29T18:10:09.158Z,12.25
2023-03-29T18:13:13.839Z,12.23
2023-03-29T18:16:16.449Z,12.20
2023-03-29T18:19:18.989Z,12.16
2023-03-29T18:22:21.603Z,12.16
2023-03-29T18:25:25.573Z,12.13
2023-03-29T18:28:28.150Z,12.12
2023-03-29T18:31:31.031Z,12.11
2023-03-29T18:34:34.254Z,12.10
2023-03-29T18:37:37.018Z,12.06
2023-03-29T18:40:40.911Z,12.05
2023-03-29T18:43:44.145Z,12.04
2023-03-29T18:46:47.960Z,12.03
2023-03-29T18:49:50.475Z,12.01
2023-03-29T18:52:53.002Z,11.98
2023-03-29T18:55:58.295Z,11.98
2023-03-29T18:59:05.026Z,11.97
2023-03-29T19:02:07.727Z,11.97
2023-03-29T19:05:10.738Z,11.96
2023-03-29T19:08:13.303Z,11.90
2023-03-29T19:11:17.181Z,11.93
2023-03-29T19:14:23.443Z,11.92
2023-03-29T19:17:27.235Z,11.90
2023-03-29T19:20:29.955Z,11.89
2023-03-29T19:23:32.539Z,11.90
2023-03-29T19:26:36.487Z,11.91
2023-03-29T19:29:39.105Z,11.92
2023-03-29T19:32:41.770Z,11.91
2023-03-29T19:35:44.624Z,11.91
2023-03-29T19:38:47.220Z,11.89
2023-03-29T19:41:51.293Z,11.91
2023-03-29T19:44:53.861Z,11.90
2023-03-29T19:47:56.561Z,11.90
2023-03-29T19:51:01.837Z,11.91
2023-03-29T19:54:06.512Z,11.93
2023-03-29T19:57:10.510Z,11.94
2023-03-29T20:00:14.936Z,11.96
2023-03-29T20:03:17.759Z,12.01
2023-03-29T20:06:20.883Z,12.02
2023-03-29T20:09:23.444Z,12.06
2023-03-29T20:12:27.434Z,12.07
2023-03-29T20:15:30.034Z,12.10
2023-03-29T20:18:32.629Z,12.09
2023-03-29T20:21:37.124Z,12.07
2023-03-29T20:24:39.643Z,12.05
2023-03-29T20:27:43.692Z,12.01
2023-03-29T20:30:50.966Z,11.99
2023-03-29T20:33:53.703Z,11.95
2023-03-29T20:37:00.589Z,11.94
2023-03-29T20:40:05.234Z,11.93
2023-03-29T20:43:13.000Z,11.91
2023-03-29T20:46:18.155Z,11.89
2023-03-29T20:49:26.158Z,11.89
2023-03-29T20:52:28.743Z,11.87
2023-03-29T20:55:33.022Z,11.84
2023-03-29T20:58:41.789Z,11.84
2023-03-29T21:01:44.387Z,11.84
2023-03-29T21:04:50.447Z,11.82
2023-03-29T21:07:54.497Z,11.83
2023-03-29T21:10:57.176Z,11.83
2023-03-29T21:14:01.284Z,11.83
2023-03-29T21:17:03.895Z,11.83
2023-03-29T21:20:09.872Z,11.85
2023-03-29T21:23:14.426Z,11.87
2023-03-29T21:26:16.980Z,11.89
2023-03-29T21:29:20.900Z,11.92
2023-03-29T21:32:23.486Z,11.96
2023-03-29T21:35:26.084Z,11.99
2023-03-29T21:38:28.724Z,12.03
2023-03-29T21:41:31.357Z,12.05
2023-03-29T21:44:35.241Z,12.08
2023-03-29T21:47:37.828Z,12.10
2023-03-29T21:50:40.440Z,12.12
2023-03-29T21:53:43.036Z,12.22
2023-03-29T21:56:47.620Z,12.32
2023-03-29T21:59:51.575Z,12.44
2023-03-29T22:02:54.218Z,12.57
2023-03-29T22:05:58.144Z,12.66
2023-03-29T22:09:00.722Z,12.72
2023-03-29T22:12:03.381Z,12.77
2023-03-29T22:15:08.483Z,12.82
2023-03-29T22:18:12.383Z,12.88
2023-03-29T22:21:16.065Z,12.95
2023-03-29T22:24:19.449Z,13.00
2023-03-29T22:27:22.732Z,13.04
2023-03-29T22:30:27.161Z,13.04
2023-03-29T22:33:29.719Z,13.01
2023-03-29T22:36:32.368Z,13.01
2023-03-29T22:39:35.561Z,12.99
2023-03-29T22:42:38.087Z,12.97
2023-03-29T22:45:42.009Z,12.95
2023-03-29T22:48:44.673Z,12.96
2023-03-29T22:51:47.241Z,12.93
2023-03-29T22:54:49.783Z,12.95
2023-03-29T22:57:52.612Z,12.96
2023-03-29T23:00:56.870Z,12.96
2023-03-29T23:03:59.438Z,12.94
2023-03-29T23:07:02.217Z,12.96
2023-03-29T23:10:06.388Z,12.92
2023-03-29T23:13:09.450Z,12.92
2023-03-29T23:16:13.382Z,12.90
2023-03-29T23:19:16.052Z,12.90
2023-03-29T23:22:18.629Z,12.87
2023-03-29T23:25:21.207Z,12.87
2023-03-29T23:28:24.856Z,12.87
2023-03-29T23:31:28.765Z,12.85
2023-03-29T23:34:31.304Z,12.84
2023-03-29T23:37:33.917Z,12.85
2023-03-29T23:40:36.451Z,12.88
2023-03-29T23:43:40.356Z,12.91
2023-03-29T23:46:44.368Z,12.96
2023-03-29T23:49:47.735Z,12.99
2023-03-29T23:52:51.403Z,13.03
2023-03-29T23:55:54.053Z,13.06
2023-03-29T23:58:56.649Z,13.09
